sensor_id;sensor_type;location;lat;lon;timestamp;temperature;humidity
53802;DHT22;39709;53.334;6.534;2022-11-20T00:02:25;0.20;99.90
53802;DHT22;39709;53.334;6.534;2022-11-20T00:04:51;0.20;99.90
53802;DHT22;39709;53.334;6.534;2022-11-20T00:07:16;0.20;99.90
53802;DHT22;39709;53.334;6.534;2022-11-20T00:09:42;0.20;99.90
53802;DHT22;39709;53.334;6.534;2022-11-20T00:12:08;0.00;99.90
53802;DHT22;39709;53.334;6.534;2022-11-20T00:14:34;0.20;99.90
53802;DHT22;39709;53.334;6.534;2022-11-20T00:17:00;0.20;99.90
53802;DHT22;39709;53.334;6.534;2022-11-20T00:19:25;0.10;99.90
53802;DHT22;39709;53.334;6.534;2022-11-20T00:21:51;0.10;99.90
53802;DHT22;39709;53.334;6.534;2022-11-20T00:24:19;0.10;99.90
53802;DHT22;39709;53.334;6.534;2022-11-20T00:26:44;-0.10;99.90
53802;DHT22;39709;53.334;6.534;2022-11-20T00:29:10;0.20;99.90
53802;DHT22;39709;53.334;6.534;2022-11-20T00:31:36;0.00;99.90
53802;DHT22;39709;53.334;6.534;2022-11-20T00:34:02;0.10;99.90
53802;DHT22;39709;53.334;6.534;2022-11-20T00:36:31;0.00;99.90
53802;DHT22;39709;53.334;6.534;2022-11-20T00:38:58;0.20;99.90
53802;DHT22;39709;53.334;6.534;2022-11-20T00:41:25;0.10;99.90
53802;DHT22;39709;53.334;6.534;2022-11-20T00:43:52;0.00;99.90
53802;DHT22;39709;53.334;6.534;2022-11-20T00:46:20;-0.10;99.90
53802;DHT22;39709;53.334;6.534;2022-11-20T00:48:46;0.00;99.90
53802;DHT22;39709;53.334;6.534;2022-11-20T00:51:17;0.80;99.90
53802;DHT22;39709;53.334;6.534;2022-11-20T00:53:44;0.10;99.90
53802;DHT22;39709;53.334;6.534;2022-11-20T00:56:14;0.50;99.90
53802;DHT22;39709;53.334;6.534;2022-11-20T00:58:42;0.50;99.90
53802;DHT22;39709;53.334;6.534;2022-11-20T01:03:37;0.00;99.90
53802;DHT22;39709;53.334;6.534;2022-11-20T01:06:05;-0.10;99.90
53802;DHT22;39709;53.334;6.534;2022-11-20T01:08:33;0.30;99.90
53802;DHT22;39709;53.334;6.534;2022-11-20T01:11:00;0.30;99.90
53802;DHT22;39709;53.334;6.534;2022-11-20T01:13:27;0.20;99.90
53802;DHT22;39709;53.334;6.534;2022-11-20T01:16:12;0.20;99.90
53802;DHT22;39709;53.334;6.534;2022-11-20T01:18:39;0.00;99.90
53802;DHT22;39709;53.334;6.534;2022-11-20T01:21:10;0.00;99.90
53802;DHT22;39709;53.334;6.534;2022-11-20T01:23:38;0.00;99.90
53802;DHT22;39709;53.334;6.534;2022-11-20T01:26:07;0.20;99.90
53802;DHT22;39709;53.334;6.534;2022-11-20T01:28:33;0.00;99.90
53802;DHT22;39709;53.334;6.534;2022-11-20T01:30:59;0.10;99.90
53802;DHT22;39709;53.334;6.534;2022-11-20T01:33:26;0.10;99.90
53802;DHT22;39709;53.334;6.534;2022-11-20T01:35:52;-0.10;99.90
53802;DHT22;39709;53.334;6.534;2022-11-20T01:38:18;-0.10;99.90
53802;DHT22;39709;53.334;6.534;2022-11-20T01:40:53;0.00;99.90
53802;DHT22;39709;53.334;6.534;2022-11-20T01:43:20;0.00;99.90
53802;DHT22;39709;53.334;6.534;2022-11-20T01:48:19;0.00;99.90
53802;DHT22;39709;53.334;6.534;2022-11-20T01:50:45;-0.10;99.90
53802;DHT22;39709;53.334;6.534;2022-11-20T01:53:15;0.30;99.90
53802;DHT22;39709;53.334;6.534;2022-11-20T01:55:47;0.10;99.90
53802;DHT22;39709;53.334;6.534;2022-11-20T01:58:14;-0.10;99.90
53802;DHT22;39709;53.334;6.534;2022-11-20T02:00:40;-0.20;99.90
53802;DHT22;39709;53.334;6.534;2022-11-20T02:03:12;-0.10;99.90
53802;DHT22;39709;53.334;6.534;2022-11-20T02:08:33;-0.10;99.90
53802;DHT22;39709;53.334;6.534;2022-11-20T02:10:59;0.00;99.90
53802;DHT22;39709;53.334;6.534;2022-11-20T02:13:25;-0.10;99.90
53802;DHT22;39709;53.334;6.534;2022-11-20T02:16:36;-0.10;99.90
53802;DHT22;39709;53.334;6.534;2022-11-20T02:19:06;-0.10;99.90
53802;DHT22;39709;53.334;6.534;2022-11-20T02:21:37;0.00;99.90
53802;DHT22;39709;53.334;6.534;2022-11-20T02:24:06;0.00;99.90
53802;DHT22;39709;53.334;6.534;2022-11-20T02:27:04;0.10;99.90
53802;DHT22;39709;53.334;6.534;2022-11-20T02:30:07;-0.10;99.90
53802;DHT22;39709;53.334;6.534;2022-11-20T02:32:37;0.00;99.90
53802;DHT22;39709;53.334;6.534;2022-11-20T02:37:45;0.00;99.90
53802;DHT22;39709;53.334;6.534;2022-11-20T02:40:13;0.00;99.90
53802;DHT22;39709;53.334;6.534;2022-11-20T02:42:38;0.00;99.90
53802;DHT22;39709;53.334;6.534;2022-11-20T02:45:05;-0.20;99.90
53802;DHT22;39709;53.334;6.534;2022-11-20T02:47:32;-0.20;99.90
53802;DHT22;39709;53.334;6.534;2022-11-20T02:49:58;0.00;99.90
53802;DHT22;39709;53.334;6.534;2022-11-20T02:52:24;-0.20;99.90
53802;DHT22;39709;53.334;6.534;2022-11-20T02:54:50;-0.10;99.90
53802;DHT22;39709;53.334;6.534;2022-11-20T02:57:16;0.00;99.90
53802;DHT22;39709;53.334;6.534;2022-11-20T02:59:41;-0.10;99.90
53802;DHT22;39709;53.334;6.534;2022-11-20T03:02:07;0.00;99.90
53802;DHT22;39709;53.334;6.534;2022-11-20T03:04:33;-0.20;99.90
53802;DHT22;39709;53.334;6.534;2022-11-20T03:06:58;0.00;99.90
53802;DHT22;39709;53.334;6.534;2022-11-20T03:09:24;0.20;99.90
53802;DHT22;39709;53.334;6.534;2022-11-20T03:11:50;0.00;99.90
53802;DHT22;39709;53.334;6.534;2022-11-20T03:14:15;0.00;99.90
53802;DHT22;39709;53.334;6.534;2022-11-20T03:16:41;-0.10;99.90
53802;DHT22;39709;53.334;6.534;2022-11-20T03:19:07;0.00;99.90
53802;DHT22;39709;53.334;6.534;2022-11-20T03:21:33;0.00;99.90
53802;DHT22;39709;53.334;6.534;2022-11-20T03:24:00;0.00;99.90
53802;DHT22;39709;53.334;6.534;2022-11-20T03:26:27;1.30;99.90
53802;DHT22;39709;53.334;6.534;2022-11-20T03:28:57;0.00;99.90
53802;DHT22;39709;53.334;6.534;2022-11-20T03:31:31;-0.10;99.90
53802;DHT22;39709;53.334;6.534;2022-11-20T03:33:58;-0.10;99.90
53802;DHT22;39709;53.334;6.534;2022-11-20T03:36:26;-0.10;99.90
53802;DHT22;39709;53.334;6.534;2022-11-20T03:38:53;0.00;99.90
53802;DHT22;39709;53.334;6.534;2022-11-20T03:41:21;0.00;99.90
53802;DHT22;39709;53.334;6.534;2022-11-20T03:43:52;0.00;99.90
53802;DHT22;39709;53.334;6.534;2022-11-20T03:46:19;0.00;99.90
53802;DHT22;39709;53.334;6.534;2022-11-20T03:48:45;-0.20;99.90
53802;DHT22;39709;53.334;6.534;2022-11-20T03:51:13;-0.10;99.90
53802;DHT22;39709;53.334;6.534;2022-11-20T03:53:40;0.00;99.90
53802;DHT22;39709;53.334;6.534;2022-11-20T03:56:07;0.00;99.90
53802;DHT22;39709;53.334;6.534;2022-11-20T03:58:35;-0.20;99.90
53802;DHT22;39709;53.334;6.534;2022-11-20T04:01:22;-0.20;99.90
53802;DHT22;39709;53.334;6.534;2022-11-20T04:03:49;0.00;99.90
53802;DHT22;39709;53.334;6.534;2022-11-20T04:06:17;-0.20;99.90
53802;DHT22;39709;53.334;6.534;2022-11-20T04:08:44;-0.20;99.90
53802;DHT22;39709;53.334;6.534;2022-11-20T04:13:37;-0.10;99.90
53802;DHT22;39709;53.334;6.534;2022-11-20T04:16:03;-0.10;99.90
53802;DHT22;39709;53.334;6.534;2022-11-20T04:18:29;-0.20;99.90
53802;DHT22;39709;53.334;6.534;2022-11-20T04:20:56;-0.10;99.90
53802;DHT22;39709;53.334;6.534;2022-11-20T04:23:22;-0.10;99.90
53802;DHT22;39709;53.334;6.534;2022-11-20T04:25:48;-0.10;99.90
53802;DHT22;39709;53.334;6.534;2022-11-20T04:28:14;-0.30;99.90
53802;DHT22;39709;53.334;6.534;2022-11-20T04:30:39;0.90;99.90
53802;DHT22;39709;53.334;6.534;2022-11-20T04:33:05;-0.30;99.90
53802;DHT22;39709;53.334;6.534;2022-11-20T04:35:34;0.00;99.90
53802;DHT22;39709;53.334;6.534;2022-11-20T04:37:59;-0.20;99.90
53802;DHT22;39709;53.334;6.534;2022-11-20T04:40:25;-0.20;99.90
53802;DHT22;39709;53.334;6.534;2022-11-20T04:42:51;0.00;99.90
53802;DHT22;39709;53.334;6.534;2022-11-20T04:45:17;-0.30;99.90
53802;DHT22;39709;53.334;6.534;2022-11-20T04:47:42;-0.10;99.90
53802;DHT22;39709;53.334;6.534;2022-11-20T04:50:08;-0.10;99.90
53802;DHT22;39709;53.334;6.534;2022-11-20T04:52:34;0.00;99.90
53802;DHT22;39709;53.334;6.534;2022-11-20T04:55:00;-0.10;99.90
53802;DHT22;39709;53.334;6.534;2022-11-20T04:57:25;0.00;99.90
53802;DHT22;39709;53.334;6.534;2022-11-20T04:59:51;0.70;99.90
53802;DHT22;39709;53.334;6.534;2022-11-20T05:02:17;-0.20;99.90
53802;DHT22;39709;53.334;6.534;2022-11-20T05:04:42;-0.30;99.90
53802;DHT22;39709;53.334;6.534;2022-11-20T05:07:08;-0.20;99.90
53802;DHT22;39709;53.334;6.534;2022-11-20T05:09:34;0.00;99.90
53802;DHT22;39709;53.334;6.534;2022-11-20T05:11:59;-0.20;99.90
53802;DHT22;39709;53.334;6.534;2022-11-20T05:14:25;0.00;99.90
53802;DHT22;39709;53.334;6.534;2022-11-20T05:16:51;0.00;99.90
53802;DHT22;39709;53.334;6.534;2022-11-20T05:19:16;0.00;99.90
53802;DHT22;39709;53.334;6.534;2022-11-20T05:21:42;-0.10;99.90
53802;DHT22;39709;53.334;6.534;2022-11-20T05:24:08;-0.20;99.90
53802;DHT22;39709;53.334;6.534;2022-11-20T05:26:33;-0.10;99.90
53802;DHT22;39709;53.334;6.534;2022-11-20T05:28:59;1.40;99.90
53802;DHT22;39709;53.334;6.534;2022-11-20T05:31:25;0.10;99.90
53802;DHT22;39709;53.334;6.534;2022-11-20T05:33:51;-0.10;99.90
53802;DHT22;39709;53.334;6.534;2022-11-20T05:36:17;0.00;99.90
53802;DHT22;39709;53.334;6.534;2022-11-20T05:38:43;-0.10;99.90
53802;DHT22;39709;53.334;6.534;2022-11-20T05:41:15;0.10;99.90
53802;DHT22;39709;53.334;6.534;2022-11-20T05:43:43;0.00;99.90
53802;DHT22;39709;53.334;6.534;2022-11-20T05:46:12;0.00;99.90
53802;DHT22;39709;53.334;6.534;2022-11-20T05:48:39;0.00;99.90
53802;DHT22;39709;53.334;6.534;2022-11-20T05:51:08;0.00;99.90
53802;DHT22;39709;53.334;6.534;2022-11-20T05:53:34;0.20;99.90
53802;DHT22;39709;53.334;6.534;2022-11-20T05:56:05;0.10;99.90
53802;DHT22;39709;53.334;6.534;2022-11-20T05:58:31;0.20;99.90
53802;DHT22;39709;53.334;6.534;2022-11-20T06:03:36;0.20;99.90
53802;DHT22;39709;53.334;6.534;2022-11-20T06:06:04;0.40;99.90
53802;DHT22;39709;53.334;6.534;2022-11-20T06:08:31;0.20;99.90
53802;DHT22;39709;53.334;6.534;2022-11-20T06:10:56;0.30;99.90
53802;DHT22;39709;53.334;6.534;2022-11-20T06:13:22;0.40;99.90
53802;DHT22;39709;53.334;6.534;2022-11-20T06:15:50;0.60;99.90
53802;DHT22;39709;53.334;6.534;2022-11-20T06:18:16;0.20;99.90
53802;DHT22;39709;53.334;6.534;2022-11-20T06:20:41;0.20;99.90
53802;DHT22;39709;53.334;6.534;2022-11-20T06:23:07;0.30;99.90
53802;DHT22;39709;53.334;6.534;2022-11-20T06:25:33;0.30;99.90
53802;DHT22;39709;53.334;6.534;2022-11-20T06:27:58;0.30;99.90
53802;DHT22;39709;53.334;6.534;2022-11-20T06:30:24;0.20;99.90
53802;DHT22;39709;53.334;6.534;2022-11-20T06:32:50;0.40;99.90
53802;DHT22;39709;53.334;6.534;2022-11-20T06:35:15;0.30;99.90
53802;DHT22;39709;53.334;6.534;2022-11-20T06:37:41;0.30;99.90
53802;DHT22;39709;53.334;6.534;2022-11-20T06:40:08;0.60;99.90
53802;DHT22;39709;53.334;6.534;2022-11-20T06:42:34;0.60;99.90
53802;DHT22;39709;53.334;6.534;2022-11-20T06:44:59;0.40;99.90
53802;DHT22;39709;53.334;6.534;2022-11-20T06:47:25;0.30;99.90
53802;DHT22;39709;53.334;6.534;2022-11-20T06:49:51;0.50;99.90
53802;DHT22;39709;53.334;6.534;2022-11-20T06:52:16;0.40;99.90
53802;DHT22;39709;53.334;6.534;2022-11-20T06:54:42;0.40;99.90
53802;DHT22;39709;53.334;6.534;2022-11-20T06:57:07;0.30;99.90
53802;DHT22;39709;53.334;6.534;2022-11-20T06:59:33;0.20;99.90
53802;DHT22;39709;53.334;6.534;2022-11-20T07:01:59;0.40;99.90
53802;DHT22;39709;53.334;6.534;2022-11-20T07:04:24;0.30;99.90
53802;DHT22;39709;53.334;6.534;2022-11-20T07:06:50;0.40;99.90
53802;DHT22;39709;53.334;6.534;2022-11-20T07:09:16;0.30;99.90
53802;DHT22;39709;53.334;6.534;2022-11-20T07:11:41;0.20;99.90
53802;DHT22;39709;53.334;6.534;2022-11-20T07:14:07;0.40;99.90
53802;DHT22;39709;53.334;6.534;2022-11-20T07:16:33;0.30;99.90
53802;DHT22;39709;53.334;6.534;2022-11-20T07:18:58;0.30;99.90
53802;DHT22;39709;53.334;6.534;2022-11-20T07:21:24;0.30;99.90
53802;DHT22;39709;53.334;6.534;2022-11-20T07:23:50;0.50;99.90
53802;DHT22;39709;53.334;6.534;2022-11-20T07:26:15;0.40;99.90
53802;DHT22;39709;53.334;6.534;2022-11-20T07:28:44;0.50;99.90
53802;DHT22;39709;53.334;6.534;2022-11-20T07:31:09;0.70;99.90
53802;DHT22;39709;53.334;6.534;2022-11-20T07:33:35;0.50;99.90
53802;DHT22;39709;53.334;6.534;2022-11-20T07:36:01;0.40;99.90
53802;DHT22;39709;53.334;6.534;2022-11-20T07:38:27;0.50;99.90
53802;DHT22;39709;53.334;6.534;2022-11-20T07:40:56;0.50;99.90
53802;DHT22;39709;53.334;6.534;2022-11-20T07:43:23;0.40;99.90
53802;DHT22;39709;53.334;6.534;2022-11-20T07:45:49;1.10;99.90
53802;DHT22;39709;53.334;6.534;2022-11-20T07:48:15;0.60;99.90
53802;DHT22;39709;53.334;6.534;2022-11-20T07:50:41;0.60;99.90
53802;DHT22;39709;53.334;6.534;2022-11-20T07:53:06;0.50;99.90
53802;DHT22;39709;53.334;6.534;2022-11-20T07:55:32;0.60;99.90
53802;DHT22;39709;53.334;6.534;2022-11-20T07:57:58;0.50;99.90
53802;DHT22;39709;53.334;6.534;2022-11-20T08:00:25;0.70;99.90
53802;DHT22;39709;53.334;6.534;2022-11-20T08:02:51;0.50;99.90
53802;DHT22;39709;53.334;6.534;2022-11-20T08:05:17;0.70;99.90
53802;DHT22;39709;53.334;6.534;2022-11-20T08:07:44;0.50;99.90
53802;DHT22;39709;53.334;6.534;2022-11-20T08:10:12;0.60;99.90
53802;DHT22;39709;53.334;6.534;2022-11-20T08:12:50;0.40;99.90
53802;DHT22;39709;53.334;6.534;2022-11-20T08:15:36;0.60;99.90
53802;DHT22;39709;53.334;6.534;2022-11-20T08:18:03;0.70;99.90
53802;DHT22;39709;53.334;6.534;2022-11-20T08:20:30;0.60;99.90
53802;DHT22;39709;53.334;6.534;2022-11-20T08:23:03;0.50;99.90
53802;DHT22;39709;53.334;6.534;2022-11-20T08:25:31;0.60;99.90
53802;DHT22;39709;53.334;6.534;2022-11-20T08:27:58;0.40;99.90
53802;DHT22;39709;53.334;6.534;2022-11-20T08:30:24;0.40;99.90
53802;DHT22;39709;53.334;6.534;2022-11-20T08:32:50;0.50;99.90
53802;DHT22;39709;53.334;6.534;2022-11-20T08:35:15;0.80;99.90
53802;DHT22;39709;53.334;6.534;2022-11-20T08:37:41;0.80;99.90
53802;DHT22;39709;53.334;6.534;2022-11-20T08:40:11;0.90;99.90
53802;DHT22;39709;53.334;6.534;2022-11-20T08:42:36;0.50;99.90
53802;DHT22;39709;53.334;6.534;2022-11-20T08:45:02;0.80;99.90
53802;DHT22;39709;53.334;6.534;2022-11-20T08:47:28;0.90;99.90
53802;DHT22;39709;53.334;6.534;2022-11-20T08:49:54;0.90;99.90
53802;DHT22;39709;53.334;6.534;2022-11-20T08:52:19;0.70;99.90
53802;DHT22;39709;53.334;6.534;2022-11-20T08:54:45;1.00;99.90
53802;DHT22;39709;53.334;6.534;2022-11-20T08:57:11;0.70;99.90
53802;DHT22;39709;53.334;6.534;2022-11-20T08:59:37;1.00;99.90
53802;DHT22;39709;53.334;6.534;2022-11-20T09:02:03;1.20;99.90
53802;DHT22;39709;53.334;6.534;2022-11-20T09:04:28;0.80;99.90
53802;DHT22;39709;53.334;6.534;2022-11-20T09:06:54;1.00;99.90
53802;DHT22;39709;53.334;6.534;2022-11-20T09:09:20;1.10;99.90
53802;DHT22;39709;53.334;6.534;2022-11-20T09:11:45;1.00;99.90
53802;DHT22;39709;53.334;6.534;2022-11-20T09:14:11;0.90;99.90
53802;DHT22;39709;53.334;6.534;2022-11-20T09:16:37;1.20;99.90
53802;DHT22;39709;53.334;6.534;2022-11-20T09:19:03;1.10;99.90
53802;DHT22;39709;53.334;6.534;2022-11-20T09:21:29;1.30;99.90
53802;DHT22;39709;53.334;6.534;2022-11-20T09:23:54;1.10;99.90
53802;DHT22;39709;53.334;6.534;2022-11-20T09:26:20;1.20;99.90
53802;DHT22;39709;53.334;6.534;2022-11-20T09:28:45;1.20;99.90
53802;DHT22;39709;53.334;6.534;2022-11-20T09:31:21;1.60;99.90
53802;DHT22;39709;53.334;6.534;2022-11-20T09:33:48;1.30;99.90
53802;DHT22;39709;53.334;6.534;2022-11-20T09:36:13;1.60;99.90
53802;DHT22;39709;53.334;6.534;2022-11-20T09:38:39;1.10;99.90
53802;DHT22;39709;53.334;6.534;2022-11-20T09:41:06;1.30;99.90
53802;DHT22;39709;53.334;6.534;2022-11-20T09:43:58;1.10;99.90
53802;DHT22;39709;53.334;6.534;2022-11-20T09:46:50;1.40;99.90
53802;DHT22;39709;53.334;6.534;2022-11-20T09:54:46;1.20;99.90
53802;DHT22;39709;53.334;6.534;2022-11-20T09:57:14;1.20;99.90
53802;DHT22;39709;53.334;6.534;2022-11-20T09:59:54;1.40;99.90
53802;DHT22;39709;53.334;6.534;2022-11-20T10:05:27;1.40;99.90
53802;DHT22;39709;53.334;6.534;2022-11-20T10:10:56;1.40;99.90
53802;DHT22;39709;53.334;6.534;2022-11-20T10:22:48;1.60;99.90
53802;DHT22;39709;53.334;6.534;2022-11-20T10:25:22;1.60;99.90
53802;DHT22;39709;53.334;6.534;2022-11-20T10:30:20;1.50;99.90
53802;DHT22;39709;53.334;6.534;2022-11-20T10:33:40;1.60;99.90
53802;DHT22;39709;53.334;6.534;2022-11-20T10:35:47;1.90;99.90
53802;DHT22;39709;53.334;6.534;2022-11-20T10:38:21;1.80;99.90
53802;DHT22;39709;53.334;6.534;2022-11-20T10:40:58;1.60;99.90
53802;DHT22;39709;53.334;6.534;2022-11-20T10:43:44;1.60;99.90
53802;DHT22;39709;53.334;6.534;2022-11-20T10:46:18;1.60;99.90
53802;DHT22;39709;53.334;6.534;2022-11-20T10:48:46;2.20;99.90
53802;DHT22;39709;53.334;6.534;2022-11-20T10:51:21;1.70;99.90
53802;DHT22;39709;53.334;6.534;2022-11-20T10:54:32;2.30;99.90
53802;DHT22;39709;53.334;6.534;2022-11-20T11:00:30;2.00;99.90
53802;DHT22;39709;53.334;6.534;2022-11-20T11:02:49;2.10;99.90
53802;DHT22;39709;53.334;6.534;2022-11-20T11:07:59;2.00;99.90
53802;DHT22;39709;53.334;6.534;2022-11-20T11:10:28;2.00;99.90
53802;DHT22;39709;53.334;6.534;2022-11-20T11:12:56;2.70;99.90
53802;DHT22;39709;53.334;6.534;2022-11-20T11:15:35;2.60;99.90
53802;DHT22;39709;53.334;6.534;2022-11-20T11:18:01;2.40;99.90
53802;DHT22;39709;53.334;6.534;2022-11-20T11:20:27;2.00;99.90
53802;DHT22;39709;53.334;6.534;2022-11-20T11:22:58;2.00;99.90
53802;DHT22;39709;53.334;6.534;2022-11-20T11:25:35;1.90;99.90
53802;DHT22;39709;53.334;6.534;2022-11-20T11:28:20;1.90;99.90
53802;DHT22;39709;53.334;6.534;2022-11-20T11:30:46;1.70;99.90
53802;DHT22;39709;53.334;6.534;2022-11-20T11:33:21;2.10;99.90
53802;DHT22;39709;53.334;6.534;2022-11-20T11:35:52;2.30;99.90
53802;DHT22;39709;53.334;6.534;2022-11-20T11:38:34;1.40;99.90
53802;DHT22;39709;53.334;6.534;2022-11-20T11:41:02;1.40;99.90
53802;DHT22;39709;53.334;6.534;2022-11-20T11:43:31;1.40;99.90
53802;DHT22;39709;53.334;6.534;2022-11-20T11:46:33;1.70;99.90
53802;DHT22;39709;53.334;6.534;2022-11-20T11:51:36;1.40;99.90
53802;DHT22;39709;53.334;6.534;2022-11-20T11:54:10;1.30;99.90
53802;DHT22;39709;53.334;6.534;2022-11-20T11:56:39;1.90;99.90
53802;DHT22;39709;53.334;6.534;2022-11-20T11:59:10;1.30;99.90
53802;DHT22;39709;53.334;6.534;2022-11-20T12:01:48;1.30;96.60
53802;DHT22;39709;53.334;6.534;2022-11-20T12:04:44;1.40;70.70
53802;DHT22;39709;53.334;6.534;2022-11-20T12:08:10;1.40;44.20
53802;DHT22;39709;53.334;6.534;2022-11-20T12:10:53;1.40;19.10
53802;DHT22;39709;53.334;6.534;2022-11-20T12:13:26;1.50;1.00
53802;DHT22;39709;53.334;6.534;2022-11-20T12:15:56;1.50;1.00
53802;DHT22;39709;53.334;6.534;2022-11-20T12:18:22;1.50;18.70
53802;DHT22;39709;53.334;6.534;2022-11-20T12:23:34;1.50;1.00
53802;DHT22;39709;53.334;6.534;2022-11-20T12:26:05;1.60;2.20
53802;DHT22;39709;53.334;6.534;2022-11-20T12:28:44;2.10;1.00
53802;DHT22;39709;53.334;6.534;2022-11-20T12:34:17;1.80;1.00
53802;DHT22;39709;53.334;6.534;2022-11-20T12:37:26;1.80;1.00
53802;DHT22;39709;53.334;6.534;2022-11-20T12:39:49;1.90;1.00
53802;DHT22;39709;53.334;6.534;2022-11-20T12:42:42;2.00;1.00
53802;DHT22;39709;53.334;6.534;2022-11-20T12:57:09;2.20;1.00
53802;DHT22;39709;53.334;6.534;2022-11-20T13:05:16;2.30;1.00
53802;DHT22;39709;53.334;6.534;2022-11-20T13:07:43;2.30;1.00
53802;DHT22;39709;53.334;6.534;2022-11-20T13:10:43;2.40;1.00
53802;DHT22;39709;53.334;6.534;2022-11-20T13:13:33;2.40;1.00
53802;DHT22;39709;53.334;6.534;2022-11-20T13:16:17;2.50;1.00
53802;DHT22;39709;53.334;6.534;2022-11-20T13:18:45;2.50;1.00
53802;DHT22;39709;53.334;6.534;2022-11-20T13:21:19;2.50;1.00
53802;DHT22;39709;53.334;6.534;2022-11-20T13:23:45;2.60;1.00
53802;DHT22;39709;53.334;6.534;2022-11-20T13:26:22;2.60;1.00
53802;DHT22;39709;53.334;6.534;2022-11-20T13:29:10;3.40;1.00
53802;DHT22;39709;53.334;6.534;2022-11-20T13:31:41;2.60;1.00
53802;DHT22;39709;53.334;6.534;2022-11-20T13:34:13;2.70;1.00
53802;DHT22;39709;53.334;6.534;2022-11-20T13:36:51;3.00;1.00
53802;DHT22;39709;53.334;6.534;2022-11-20T13:39:36;2.60;1.00
53802;DHT22;39709;53.334;6.534;2022-11-20T13:42:20;2.60;99.90
53802;DHT22;39709;53.334;6.534;2022-11-20T13:44:54;2.60;99.90
53802;DHT22;39709;53.334;6.534;2022-11-20T13:47:27;3.50;1.00
53802;DHT22;39709;53.334;6.534;2022-11-20T13:49:55;3.30;1.00
53802;DHT22;39709;53.334;6.534;2022-11-20T13:55:28;2.60;1.00
53802;DHT22;39709;53.334;6.534;2022-11-20T13:58:13;2.50;1.00
53802;DHT22;39709;53.334;6.534;2022-11-20T14:00:51;2.50;1.00
53802;DHT22;39709;53.334;6.534;2022-11-20T14:03:21;2.50;1.00
53802;DHT22;39709;53.334;6.534;2022-11-20T14:05:55;3.10;1.00
53802;DHT22;39709;53.334;6.534;2022-11-20T14:08:41;2.40;1.00
53802;DHT22;39709;53.334;6.534;2022-11-20T14:11:31;2.40;1.00
53802;DHT22;39709;53.334;6.534;2022-11-20T14:16:27;2.30;1.00
53802;DHT22;39709;53.334;6.534;2022-11-20T14:18:55;3.40;1.00
53802;DHT22;39709;53.334;6.534;2022-11-20T14:21:23;2.20;1.00
53802;DHT22;39709;53.334;6.534;2022-11-20T14:23:52;2.20;1.00
53802;DHT22;39709;53.334;6.534;2022-11-20T14:26:19;2.60;1.00
53802;DHT22;39709;53.334;6.534;2022-11-20T14:28:49;2.10;1.00
53802;DHT22;39709;53.334;6.534;2022-11-20T14:31:25;2.10;1.00
53802;DHT22;39709;53.334;6.534;2022-11-20T14:33:53;2.10;1.00
53802;DHT22;39709;53.334;6.534;2022-11-20T14:36:24;2.10;1.00
53802;DHT22;39709;53.334;6.534;2022-11-20T14:38:51;2.20;1.00
53802;DHT22;39709;53.334;6.534;2022-11-20T14:41:23;2.10;1.00
53802;DHT22;39709;53.334;6.534;2022-11-20T14:43:55;2.00;1.00
53802;DHT22;39709;53.334;6.534;2022-11-20T14:46:22;2.00;1.00
53802;DHT22;39709;53.334;6.534;2022-11-20T14:49:00;1.90;1.00
53802;DHT22;39709;53.334;6.534;2022-11-20T14:51:38;1.80;1.00
53802;DHT22;39709;53.334;6.534;2022-11-20T14:54:20;1.90;1.00
53802;DHT22;39709;53.334;6.534;2022-11-20T14:57:00;1.80;1.00
53802;DHT22;39709;53.334;6.534;2022-11-20T14:59:32;1.80;1.00
53802;DHT22;39709;53.334;6.534;2022-11-20T15:02:08;1.70;1.00
53802;DHT22;39709;53.334;6.534;2022-11-20T15:04:47;1.70;1.00
53802;DHT22;39709;53.334;6.534;2022-11-20T15:07:26;1.80;1.00
53802;DHT22;39709;53.334;6.534;2022-11-20T15:10:10;1.70;1.00
53802;DHT22;39709;53.334;6.534;2022-11-20T15:12:52;1.60;1.00
53802;DHT22;39709;53.334;6.534;2022-11-20T15:17:53;1.50;1.00
53802;DHT22;39709;53.334;6.534;2022-11-20T15:20:22;1.50;1.00
53802;DHT22;39709;53.334;6.534;2022-11-20T15:22:49;1.40;1.00
53802;DHT22;39709;53.334;6.534;2022-11-20T15:25:16;1.40;1.00
53802;DHT22;39709;53.334;6.534;2022-11-20T15:27:43;1.30;1.00
53802;DHT22;39709;53.334;6.534;2022-11-20T15:30:15;1.70;1.00
53802;DHT22;39709;53.334;6.534;2022-11-20T15:32:42;1.30;1.00
53802;DHT22;39709;53.334;6.534;2022-11-20T15:35:08;1.30;1.00
53802;DHT22;39709;53.334;6.534;2022-11-20T15:37:35;1.30;1.00
53802;DHT22;39709;53.334;6.534;2022-11-20T15:40:01;1.30;1.00
53802;DHT22;39709;53.334;6.534;2022-11-20T15:42:27;1.20;1.00
53802;DHT22;39709;53.334;6.534;2022-11-20T15:44:52;1.40;1.00
53802;DHT22;39709;53.334;6.534;2022-11-20T15:47:19;2.10;1.00
53802;DHT22;39709;53.334;6.534;2022-11-20T15:49:48;1.30;1.00
53802;DHT22;39709;53.334;6.534;2022-11-20T15:52:14;1.30;1.00
53802;DHT22;39709;53.334;6.534;2022-11-20T15:54:41;1.30;1.00
53802;DHT22;39709;53.334;6.534;2022-11-20T15:57:06;1.30;1.00
53802;DHT22;39709;53.334;6.534;2022-11-20T15:59:32;1.30;1.00
53802;DHT22;39709;53.334;6.534;2022-11-20T16:01:58;1.80;1.00
53802;DHT22;39709;53.334;6.534;2022-11-20T16:04:23;1.40;1.00
53802;DHT22;39709;53.334;6.534;2022-11-20T16:06:50;1.70;1.00
53802;DHT22;39709;53.334;6.534;2022-11-20T16:09:15;1.40;1.00
53802;DHT22;39709;53.334;6.534;2022-11-20T16:11:41;1.50;1.00
53802;DHT22;39709;53.334;6.534;2022-11-20T16:14:10;1.30;1.00
53802;DHT22;39709;53.334;6.534;2022-11-20T16:16:54;1.40;1.00
53802;DHT22;39709;53.334;6.534;2022-11-20T16:19:20;1.80;36.10
53802;DHT22;39709;53.334;6.534;2022-11-20T16:21:46;2.20;99.90
53802;DHT22;39709;53.334;6.534;2022-11-20T16:24:13;1.50;29.90
53802;DHT22;39709;53.334;6.534;2022-11-20T16:26:39;1.50;48.20
53802;DHT22;39709;53.334;6.534;2022-11-20T16:29:06;1.60;99.90
53802;DHT22;39709;53.334;6.534;2022-11-20T16:31:32;2.10;99.90
53802;DHT22;39709;53.334;6.534;2022-11-20T16:34:01;1.70;99.90
53802;DHT22;39709;53.334;6.534;2022-11-20T16:36:28;1.50;97.30
53802;DHT22;39709;53.334;6.534;2022-11-20T16:38:56;1.50;99.90
53802;DHT22;39709;53.334;6.534;2022-11-20T16:41:23;1.50;99.90
53802;DHT22;39709;53.334;6.534;2022-11-20T16:43:59;1.40;37.10
53802;DHT22;39709;53.334;6.534;2022-11-20T16:46:27;1.30;34.80
53802;DHT22;39709;53.334;6.534;2022-11-20T16:48:55;1.40;99.90
53802;DHT22;39709;53.334;6.534;2022-11-20T16:51:22;1.30;1.00
53802;DHT22;39709;53.334;6.534;2022-11-20T16:53:48;1.60;99.90
53802;DHT22;39709;53.334;6.534;2022-11-20T16:56:17;1.30;24.70
53802;DHT22;39709;53.334;6.534;2022-11-20T16:58:44;1.40;99.90
53802;DHT22;39709;53.334;6.534;2022-11-20T17:01:12;1.90;99.90
53802;DHT22;39709;53.334;6.534;2022-11-20T17:03:39;2.20;99.90
53802;DHT22;39709;53.334;6.534;2022-11-20T17:06:35;1.70;99.90
53802;DHT22;39709;53.334;6.534;2022-11-20T17:09:02;2.00;99.90
53802;DHT22;39709;53.334;6.534;2022-11-20T17:11:28;2.10;99.90
53802;DHT22;39709;53.334;6.534;2022-11-20T17:13:55;1.90;99.90
53802;DHT22;39709;53.334;6.534;2022-11-20T17:16:23;1.50;99.90
53802;DHT22;39709;53.334;6.534;2022-11-20T17:18:48;1.30;99.90
53802;DHT22;39709;53.334;6.534;2022-11-20T17:21:15;1.60;99.90
53802;DHT22;39709;53.334;6.534;2022-11-20T17:23:42;2.00;99.90